Time;durP1;ratioP1;P1;durP2;ratioP2;P2;SDS_P1;SDS_P2;PMS_P1;PMS_P2;Temp;Humidity;BMP_temperature;BMP_pressure;BME280_temperature;BME280_humidity;BME280_pressure;Samples;Min_cycle;Max_cycle;Signal;HPM_P1;HPM_P2
2021/12/18 00:00:29;;;;;;;;;;;7.10;99.90;;;;;;5092804;28;20552;-70
2021/12/18 00:02:55;;;;;;;20.35;1.88;;;7.10;99.90;;;;;;5092312;28;19946;-70
2021/12/18 00:05:21;;;;;;;20.42;1.70;;;6.90;99.90;;;;;;5092343;28;20048;-70
2021/12/18 00:07:46;;;;;;;37.72;2.20;;;6.80;99.90;;;;;;5092123;28;20048;-71
2021/12/18 00:10:12;;;;;;;19.77;1.77;;;;;;;;;;5092285;28;20504;-70
2021/12/18 00:12:41;;;;;;;28.65;1.67;;;6.90;99.90;;;;;;5091916;28;20186;-70
2021/12/18 00:15:07;;;;;;;20.25;2.00;;;6.90;99.90;;;;;;5092305;28;20210;-70
2021/12/18 00:17:32;;;;;;;13.00;2.05;;;7.20;99.90;;;;;;5092299;28;20044;-70
2021/12/18 00:19:58;;;;;;;24.33;2.45;;;6.80;99.90;;;;;;5095556;28;20046;-70
2021/12/18 00:22:24;;;;;;;13.10;2.13;;;6.90;99.90;;;;;;5095605;28;20392;-70
2021/12/18 00:24:49;;;;;;;40.85;3.15;;;7.10;99.90;;;;;;5095818;28;20365;-70
2021/12/18 00:27:15;;;;;;;78.15;4.10;;;7.10;99.90;;;;;;5095795;28;20196;-69
2021/12/18 00:29:41;;;;;;;62.35;4.50;;;6.90;99.90;;;;;;5095444;28;20067;-69
2021/12/18 00:32:06;;;;;;;66.28;5.25;;;7.40;99.90;;;;;;5095561;28;20044;-70
2021/12/18 00:34:32;;;;;;;54.63;4.32;;;7.00;99.90;;;;;;5094623;28;20087;-70
2021/12/18 00:36:58;;;;;;;61.33;5.00;;;6.80;99.90;;;;;;5095310;28;20083;-70
2021/12/18 00:39:24;;;;;;;52.75;3.70;;;7.00;99.90;;;;;;5094464;28;20052;-70
2021/12/18 00:42:19;;;;;;;34.13;3.60;;;6.90;99.90;;;;;;5095794;28;20095;-70
2021/12/18 00:44:45;;;;;;;13.15;2.28;;;7.00;99.90;;;;;;5095708;28;20055;-70
2021/12/18 00:47:11;;;;;;;17.70;2.70;;;7.00;99.90;;;;;;5095341;28;20480;-70
2021/12/18 00:49:37;;;;;;;18.00;2.30;;;7.10;99.90;;;;;;5095430;28;20060;-71
2021/12/18 00:52:04;;;;;;;9.85;1.38;;;6.80;99.90;;;;;;5094931;28;20086;-70
2021/12/18 00:54:31;;;;;;;14.82;1.88;;;;;;;;;;5095293;28;20420;-70
2021/12/18 00:56:57;;;;;;;12.32;1.48;;;6.70;99.90;;;;;;5094222;28;20122;-72
2021/12/18 00:59:23;;;;;;;32.75;1.83;;;6.70;99.90;;;;;;5095198;28;20048;-70
2021/12/18 01:01:49;;;;;;;7.78;1.17;;;;;;;;;;5095171;28;20384;-70
2021/12/18 01:04:14;;;;;;;16.55;1.15;;;7.10;99.90;;;;;;5095069;28;20040;-69
2021/12/18 01:06:40;;;;;;;21.73;1.52;;;6.90;99.90;;;;;;5094842;28;20074;-70
2021/12/18 01:09:06;;;;;;;27.92;1.38;;;;;;;;;;5094904;28;20366;-70
2021/12/18 01:25:01;;;;;;;26.05;1.75;;;7.00;99.90;;;;;;5094666;28;20506;-69
2021/12/18 01:27:27;;;;;;;24.70;1.80;;;6.60;99.90;;;;;;5094629;28;20131;-70
2021/12/18 01:29:53;;;;;;;9.20;1.25;;;6.90;99.90;;;;;;5094591;28;20036;-70
2021/12/18 01:32:19;;;;;;;17.33;1.50;;;6.90;99.90;;;;;;5094462;28;20097;-69
2021/12/18 01:34:45;;;;;;;17.48;1.52;;;6.60;99.90;;;;;;5094238;28;20040;-69
2021/12/18 01:37:11;;;;;;;8.95;1.25;;;6.90;99.90;;;;;;5094495;28;20051;-69
2021/12/18 01:39:37;;;;;;;12.23;1.40;;;7.20;99.90;;;;;;5094485;28;20403;-70
2021/12/18 01:52:45;;;;;;;16.20;1.75;;;6.80;99.90;;;;;;5094093;28;20519;-70
2021/12/18 01:55:11;;;;;;;13.20;1.60;;;6.90;99.90;;;;;;5094051;28;20080;-69
2021/12/18 01:57:37;;;;;;;11.30;1.80;;;6.90;99.90;;;;;;5093807;28;20473;-70
2021/12/18 02:00:18;;;;;;;9.27;1.90;;;7.30;99.90;;;;;;5093997;28;20052;-69
2021/12/18 02:02:44;;;;;;;12.23;2.08;;;6.80;99.90;;;;;;5092633;28;20048;-70
2021/12/18 02:05:11;;;;;;;16.08;1.73;;;7.00;99.90;;;;;;5093897;28;20055;-70
2021/12/18 02:07:37;;;;;;;14.07;2.00;;;7.00;99.90;;;;;;5093849;28;20122;-70
2021/12/18 02:10:08;;;;;;;21.15;2.33;;;7.00;99.90;;;;;;5093453;28;20143;-70
2021/12/18 02:20:53;;;;;;;18.55;2.35;;;7.10;99.90;;;;;;5093580;28;20054;-70
2021/12/18 02:23:19;;;;;;;7.93;1.67;;;7.10;99.90;;;;;;5093553;28;20044;-69
2021/12/18 02:25:46;;;;;;;16.52;2.22;;;7.10;99.90;;;;;;5093548;28;20048;-70
2021/12/18 02:28:18;;;;;;;12.80;1.73;;;7.30;99.90;;;;;;5093433;28;20094;-70
2021/12/18 02:30:44;;;;;;;17.45;2.15;;;7.40;99.90;;;;;;5093467;28;20419;-70
2021/12/18 02:33:10;;;;;;;14.35;2.03;;;7.20;99.90;;;;;;5093193;28;20810;-70
2021/12/18 02:35:43;;;;;;;16.45;2.28;;;7.20;99.90;;;;;;5093384;28;20257;-69
2021/12/18 02:38:20;;;;;;;10.23;1.98;;;7.00;99.90;;;;;;5093401;28;20036;-70
2021/12/18 02:43:32;;;;;;;8.13;1.85;;;7.20;99.90;;;;;;5092997;28;20480;-70
2021/12/18 02:45:59;;;;;;;17.20;2.40;;;7.10;99.90;;;;;;5093212;28;20123;-70
2021/12/18 02:48:28;;;;;;;11.93;2.40;;;7.30;99.90;;;;;;5092827;28;20059;-70
2021/12/18 02:50:54;;;;;;;18.80;2.78;;;7.10;99.90;;;;;;5093027;28;20048;-70
2021/12/18 02:53:20;;;;;;;13.43;2.38;;;7.00;99.90;;;;;;5093187;28;20127;-70
2021/12/18 02:55:57;;;;;;;15.85;2.65;;;7.40;99.90;;;;;;5093113;28;20440;-69
2021/12/18 02:58:23;;;;;;;27.77;2.80;;;7.20;99.90;;;;;;5093092;28;20480;-70
2021/12/18 03:00:51;;;;;;;12.00;2.65;;;7.20;99.90;;;;;;5092735;28;20054;-70
2021/12/18 03:03:17;;;;;;;13.10;2.42;;;7.60;99.90;;;;;;5092684;28;20488;-70
2021/12/18 03:05:55;;;;;;;;;;;7.00;99.90;;;;;;5092397;28;20060;-70
2021/12/18 03:08:34;;;;;;;10.00;2.47;;;7.20;99.90;;;;;;5093034;28;20397;-69
2021/12/18 03:27:34;;;;;;;16.95;4.40;;;7.50;99.90;;;;;;5068358;28;20056;-69
2021/12/18 03:29:59;;;;;;;19.80;4.40;;;7.50;99.90;;;;;;5092432;28;20047;-69
2021/12/18 03:32:25;;;;;;;16.38;4.65;;;7.50;99.90;;;;;;5092574;28;20044;-69
2021/12/18 03:34:52;;;;;;;24.38;4.85;;;7.40;99.90;;;;;;5092683;28;20087;-69
2021/12/18 03:37:19;;;;;;;12.95;4.50;;;7.60;99.90;;;;;;5092910;28;20145;-70
2021/12/18 03:39:45;;;;;;;19.67;5.40;;;7.50;99.90;;;;;;5092623;28;20127;-69
2021/12/18 03:42:12;;;;;;;27.90;6.43;;;7.70;99.90;;;;;;5092577;28;20480;-70
2021/12/18 03:44:37;;;;;;;16.15;5.07;;;7.70;99.90;;;;;;5091176;28;20048;-70
2021/12/18 03:47:04;;;;;;;25.75;7.07;;;7.70;99.90;;;;;;5092591;28;20541;-70
2021/12/18 03:49:30;;;;;;;30.75;6.18;;;7.50;99.90;;;;;;5092245;28;20512;-69
2021/12/18 03:51:56;;;;;;;33.67;6.47;;;7.70;99.90;;;;;;5092446;28;20091;-69
2021/12/18 03:54:22;;;;;;;24.65;5.90;;;7.60;99.90;;;;;;5095020;28;20040;-69
2021/12/18 03:56:47;;;;;;;22.58;5.88;;;7.40;99.90;;;;;;5096395;28;20059;-69
2021/12/18 03:59:13;;;;;;;22.73;5.40;;;7.70;99.90;;;;;;5096105;28;20036;-69
2021/12/18 04:01:39;;;;;;;21.77;6.15;;;;;;;;;;5096334;28;20476;-69
2021/12/18 04:04:05;;;;;;;;;;;7.70;99.90;;;;;;5096713;28;20048;-69
2021/12/18 04:06:31;;;;;;;25.35;6.50;;;7.60;99.90;;;;;;5096229;28;19923;-68
2021/12/18 04:08:58;;;;;;;24.00;5.97;;;7.70;99.90;;;;;;5096249;28;20044;-69
2021/12/18 04:11:24;;;;;;;23.10;6.25;;;8.00;99.90;;;;;;5094831;28;20048;-69
2021/12/18 04:13:50;;;;;;;19.25;5.45;;;7.50;99.90;;;;;;5095344;28;20406;-69
2021/12/18 04:16:17;;;;;;;18.05;4.90;;;7.70;99.90;;;;;;5096032;28;20060;-69
2021/12/18 04:18:42;;;;;;;22.50;5.82;;;7.40;99.90;;;;;;5096039;28;20123;-69
2021/12/18 04:21:08;;;;;;;15.63;4.68;;;7.80;99.90;;;;;;5095964;28;20463;-69
2021/12/18 04:23:34;;;;;;;15.43;4.82;;;7.70;99.90;;;;;;5095953;28;20047;-71
2021/12/18 04:26:00;;;;;;;17.25;4.38;;;7.60;99.90;;;;;;5095846;28;20097;-69
2021/12/18 04:28:26;;;;;;;18.20;4.78;;;7.60;99.90;;;;;;5095264;28;20424;-69
2021/12/18 04:30:51;;;;;;;18.38;4.38;;;7.70;99.90;;;;;;5095702;28;20040;-69
2021/12/18 04:33:17;;;;;;;18.35;4.18;;;7.60;99.90;;;;;;5094647;28;20101;-69
2021/12/18 04:35:44;;;;;;;16.13;4.28;;;7.50;99.90;;;;;;5095676;28;20043;-69
2021/12/18 04:38:10;;;;;;;12.57;3.72;;;;;;;;;;5095624;28;20052;-70
2021/12/18 04:40:36;;;;;;;16.02;3.63;;;7.70;99.90;;;;;;5095576;28;20044;-70
2021/12/18 04:43:03;;;;;;;12.88;4.15;;;7.70;99.90;;;;;;5095258;28;20476;-70
2021/12/18 04:45:29;;;;;;;17.65;3.80;;;7.80;99.90;;;;;;5094496;28;20440;-70
2021/12/18 04:47:55;;;;;;;;;;;7.90;99.90;;;;;;5095849;28;20062;-70
2021/12/18 04:50:22;;;;;;;16.80;3.75;;;7.60;99.90;;;;;;5095366;28;19924;-70
2021/12/18 04:52:48;;;;;;;21.77;4.03;;;7.60;99.90;;;;;;5093703;28;20551;-69
2021/12/18 04:55:14;;;;;;;25.92;4.18;;;8.00;99.90;;;;;;5095323;28;20089;-69
2021/12/18 04:57:40;;;;;;;23.50;3.63;;;7.70;99.90;;;;;;5095080;28;20052;-70
2021/12/18 05:00:08;;;;;;;17.35;3.80;;;7.70;99.90;;;;;;5095204;28;20494;-69
2021/12/18 05:02:38;;;;;;;21.73;3.45;;;7.60;99.90;;;;;;5095120;28;20036;-69
2021/12/18 05:05:05;;;;;;;15.63;3.10;;;7.50;99.90;;;;;;5094815;28;20108;-68
2021/12/18 05:07:31;;;;;;;20.95;3.97;;;7.70;99.90;;;;;;5095062;28;20131;-69
2021/12/18 05:09:57;;;;;;;16.83;3.85;;;7.70;99.90;;;;;;5094992;28;20127;-68
2021/12/18 05:12:23;;;;;;;16.08;3.75;;;7.50;99.90;;;;;;5094373;28;20059;-69
2021/12/18 05:14:48;;;;;;;16.35;3.22;;;8.00;99.90;;;;;;5094912;28;20511;-69
2021/12/18 05:17:14;;;;;;;16.60;3.85;;;7.70;99.90;;;;;;5094901;28;20067;-69
2021/12/18 05:19:40;;;;;;;18.52;3.58;;;7.60;99.90;;;;;;5094828;28;20048;-71
2021/12/18 05:22:06;;;;;;;15.27;3.33;;;7.60;99.90;;;;;;5094734;28;20051;-69
2021/12/18 05:24:31;;;;;;;15.77;3.63;;;7.40;99.90;;;;;;5094762;28;20044;-69
2021/12/18 05:26:58;;;;;;;14.02;4.07;;;7.60;99.90;;;;;;5094446;28;20361;-69
2021/12/18 05:29:24;;;;;;;14.90;3.50;;;8.00;99.90;;;;;;5076823;28;20436;-69
2021/12/18 05:31:50;;;;;;;18.30;4.07;;;7.70;99.90;;;;;;5094503;28;20220;-69
2021/12/18 05:34:22;;;;;;;18.65;4.35;;;8.10;99.90;;;;;;5094513;28;20105;-69
2021/12/18 05:39:29;;;;;;;19.92;4.72;;;7.70;99.90;;;;;;5094456;28;20052;-70
2021/12/18 05:41:56;;;;;;;14.13;3.60;;;7.90;99.90;;;;;;5094442;28;20043;-69
2021/12/18 05:44:24;;;;;;;20.38;4.13;;;7.80;99.90;;;;;;5093254;28;20134;-69
2021/12/18 05:46:50;;;;;;;19.65;3.70;;;7.80;99.90;;;;;;5094277;28;20141;-69
2021/12/18 05:49:16;;;;;;;;;;;7.90;99.90;;;;;;5094719;28;20341;-69
2021/12/18 05:51:45;;;;;;;15.77;3.80;;;8.20;99.90;;;;;;5094135;28;19920;-69
2021/12/18 05:54:12;;;;;;;20.95;3.35;;;7.90;99.90;;;;;;5094114;28;20048;-70
2021/12/18 05:56:38;;;;;;;18.40;3.85;;;7.80;99.90;;;;;;5093833;28;20141;-70
2021/12/18 05:59:05;;;;;;;20.92;3.67;;;8.20;99.90;;;;;;5093772;28;20081;-69
2021/12/18 06:01:31;;;;;;;15.13;3.83;;;8.10;99.90;;;;;;5094024;28;20135;-69
2021/12/18 06:03:58;;;;;;;18.70;4.28;;;7.90;99.90;;;;;;5094062;28;20040;-69
2021/12/18 06:06:25;;;;;;;13.30;3.42;;;8.00;99.90;;;;;;5092877;28;20058;-69
2021/12/18 06:08:51;;;;;;;18.83;4.07;;;8.00;99.90;;;;;;5092837;28;20523;-70
2021/12/18 06:11:19;;;;;;;15.55;4.47;;;8.00;99.90;;;;;;5093541;28;20450;-69
2021/12/18 06:13:47;;;;;;;19.35;4.35;;;8.10;99.90;;;;;;5093337;28;20087;-69
2021/12/18 06:16:13;;;;;;;16.70;3.03;;;8.00;99.90;;;;;;5093035;28;20052;-70
2021/12/18 06:18:42;;;;;;;14.27;3.08;;;8.30;99.90;;;;;;5093406;28;20488;-69
2021/12/18 06:21:12;;;;;;;11.63;3.13;;;8.10;99.90;;;;;;5092606;28;20063;-70
2021/12/18 06:23:39;;;;;;;10.95;2.40;;;8.50;99.90;;;;;;5092372;28;20056;-69
2021/12/18 06:26:05;;;;;;;15.23;2.95;;;8.00;99.90;;;;;;5093598;28;20051;-69
2021/12/18 06:28:31;;;;;;;12.82;2.80;;;8.10;99.90;;;;;;5093512;28;20056;-70
2021/12/18 06:30:57;;;;;;;16.42;3.30;;;8.00;99.90;;;;;;5093458;28;20032;-70
2021/12/18 06:33:22;;;;;;;13.85;2.88;;;8.30;99.90;;;;;;5093147;28;20044;-70
2021/12/18 06:35:49;;;;;;;10.27;2.40;;;;;;;;;;5093384;28;20044;-70
2021/12/18 06:38:15;;;;;;;11.05;2.72;;;8.50;99.90;;;;;;5093137;28;20044;-69
2021/12/18 06:40:40;;;;;;;;;;;8.00;99.90;;;;;;5093728;28;20060;-70
2021/12/18 06:43:06;;;;;;;17.38;2.50;;;8.30;99.90;;;;;;5093329;28;20261;-70
2021/12/18 06:45:32;;;;;;;10.50;2.47;;;9.10;99.90;;;;;;5093358;28;20418;-69
2021/12/18 06:47:58;;;;;;;11.88;2.20;;;8.10;99.90;;;;;;5093168;28;20059;-69
2021/12/18 06:50:24;;;;;;;11.27;2.85;;;7.90;99.90;;;;;;5093232;28;20036;-70
2021/12/18 06:52:49;;;;;;;14.82;2.58;;;8.10;99.90;;;;;;5091528;28;20413;-70
2021/12/18 06:55:15;;;;;;;13.30;2.28;;;8.00;99.90;;;;;;5093174;28;20074;-69
2021/12/18 06:57:41;;;;;;;10.43;2.30;;;;;;;;;;5093148;28;20044;-69
2021/12/18 07:00:10;;;;;;;9.82;2.90;;;8.20;99.90;;;;;;5093087;28;20050;-69
2021/12/18 07:02:36;;;;;;;11.50;2.20;;;8.00;99.90;;;;;;5091937;28;20076;-69
2021/12/18 07:05:02;;;;;;;;;;;8.00;99.90;;;;;;5075087;28;20447;-69
2021/12/18 07:07:28;;;;;;;8.60;2.20;;;8.20;99.90;;;;;;5091741;28;19924;-70
2021/12/18 07:09:53;;;;;;;12.70;2.90;;;7.90;99.90;;;;;;5091957;28;20376;-70
2021/12/18 07:12:19;;;;;;;12.55;2.60;;;8.20;99.90;;;;;;5092603;28;20523;-69
2021/12/18 07:14:45;;;;;;;6.90;1.90;;;8.30;99.90;;;;;;5092828;28;20083;-69
2021/12/18 07:17:11;;;;;;;9.15;2.25;;;8.40;99.90;;;;;;5092858;28;20095;-69
2021/12/18 07:19:38;;;;;;;5.35;1.85;;;8.40;99.90;;;;;;5092873;28;20476;-69
2021/12/18 07:22:04;;;;;;;12.00;2.63;;;8.40;99.90;;;;;;5092497;28;20040;-69
2021/12/18 07:24:30;;;;;;;9.02;1.95;;;8.40;99.90;;;;;;5092812;28;20113;-69
2021/12/18 07:26:56;;;;;;;11.57;2.22;;;8.10;99.90;;;;;;5093014;28;20392;-69
2021/12/18 07:29:22;;;;;;;7.47;2.00;;;8.00;99.90;;;;;;5096986;28;20048;-70
2021/12/18 07:31:49;;;;;;;11.73;2.30;;;8.40;99.90;;;;;;5096857;28;20379;-69
2021/12/18 07:34:15;;;;;;;7.80;2.70;;;8.60;99.90;;;;;;5096851;28;20502;-69
2021/12/18 07:36:41;;;;;;;13.05;2.25;;;8.30;99.90;;;;;;5096545;28;20044;-69
2021/12/18 07:39:06;;;;;;;14.85;2.30;;;8.30;99.90;;;;;;5096826;28;20058;-70
2021/12/18 07:41:32;;;;;;;10.75;2.08;;;8.40;99.90;;;;;;5096703;28;20429;-69
2021/12/18 07:43:58;;;;;;;8.05;1.90;;;8.30;99.90;;;;;;5095445;28;20052;-70
2021/12/18 07:46:24;;;;;;;9.25;2.25;;;8.30;99.90;;;;;;5095591;28;20047;-69
2021/12/18 07:48:49;;;;;;;7.30;2.20;;;8.40;99.90;;;;;;5096561;28;20502;-70
2021/12/18 07:51:15;;;;;;;10.75;2.58;;;8.40;99.90;;;;;;5095167;28;20048;-69
2021/12/18 07:53:41;;;;;;;10.43;2.17;;;8.20;99.90;;;;;;5094150;28;20054;-76
2021/12/18 07:56:09;;;;;;;15.10;2.65;;;8.40;99.90;;;;;;5072767;28;20056;-71
2021/12/18 07:58:35;;;;;;;16.95;2.63;;;9.50;99.90;;;;;;5071157;28;20378;-69
2021/12/18 08:01:03;;;;;;;15.85;3.05;;;8.20;99.90;;;;;;5074575;28;20044;-70
2021/12/18 08:03:28;;;;;;;16.10;2.30;;;8.50;99.90;;;;;;5073172;28;20504;-70
2021/12/18 08:05:54;;;;;;;11.90;2.28;;;8.60;99.90;;;;;;5073252;28;20083;-71
2021/12/18 08:08:20;;;;;;;8.27;2.08;;;8.30;99.90;;;;;;5073831;28;20052;-70
2021/12/18 08:10:47;;;;;;;8.45;1.90;;;8.60;99.90;;;;;;5073248;28;20048;-70
2021/12/18 08:13:13;;;;;;;6.68;1.95;;;8.30;99.90;;;;;;5074588;28;20528;-70
2021/12/18 08:15:39;;;;;;;12.20;2.95;;;8.70;99.90;;;;;;5075042;28;20408;-69
2021/12/18 08:18:07;;;;;;;11.25;2.92;;;8.60;99.90;;;;;;5072982;28;20044;-69
2021/12/18 08:20:36;;;;;;;16.38;2.75;;;8.50;99.90;;;;;;5072502;28;20118;-70
2021/12/18 08:23:02;;;;;;;18.08;3.33;;;8.70;99.90;;;;;;5074597;28;20052;-71
2021/12/18 08:25:29;;;;;;;14.68;3.15;;;8.70;99.90;;;;;;5074011;28;20143;-70
2021/12/18 08:27:58;;;;;;;17.15;2.88;;;8.50;99.90;;;;;;5074128;28;20102;-70
2021/12/18 08:30:24;;;;;;;16.55;3.30;;;8.70;99.90;;;;;;5073532;28;20508;-70
2021/12/18 08:32:50;;;;;;;15.93;3.05;;;8.40;99.90;;;;;;5073664;28;20531;-72
2021/12/18 08:35:16;;;;;;;9.77;2.85;;;8.40;99.90;;;;;;5074263;28;20040;-70
2021/12/18 08:37:41;;;;;;;8.65;2.40;;;8.70;99.90;;;;;;5074181;28;20047;-70
2021/12/18 08:40:08;;;;;;;14.93;2.88;;;8.50;99.90;;;;;;5072001;28;20052;-72
2021/12/18 08:42:34;;;;;;;8.70;2.50;;;8.50;99.90;;;;;;5074269;28;20165;-69
2021/12/18 08:45:00;;;;;;;10.27;2.10;;;8.50;99.90;;;;;;5074277;28;20081;-70
2021/12/18 08:47:26;;;;;;;6.82;2.20;;;9.20;99.90;;;;;;5073786;28;20083;-70
2021/12/18 08:49:52;;;;;;;7.05;1.92;;;8.50;99.90;;;;;;5072847;28;20080;-70
2021/12/18 08:52:18;;;;;;;;;;;8.30;99.90;;;;;;5074399;28;20048;-71
2021/12/18 08:54:44;;;;;;;6.50;2.40;;;8.40;99.90;;;;;;5072430;28;19970;-70
2021/12/18 08:57:10;;;;;;;11.45;2.90;;;8.30;99.90;;;;;;5073934;28;20060;-70
2021/12/18 08:59:37;;;;;;;;;;;7.90;99.90;;;;;;5073371;28;20475;-70
2021/12/18 09:02:03;;;;;;;6.60;2.00;;;8.20;99.90;;;;;;5070231;28;19924;-71
2021/12/18 09:04:28;;;;;;;13.98;2.80;;;8.30;99.90;;;;;;5072613;28;20570;-71
2021/12/18 09:06:54;;;;;;;8.35;2.05;;;8.60;99.90;;;;;;5074157;28;20045;-70
2021/12/18 09:09:20;;;;;;;6.88;1.98;;;8.50;99.90;;;;;;5074610;28;20041;-70
2021/12/18 09:11:46;;;;;;;;;;;8.40;99.90;;;;;;5075137;28;20150;-69
2021/12/18 09:14:12;;;;;;;10.02;2.65;;;8.50;99.90;;;;;;5074618;28;20016;-70
2021/12/18 09:16:37;;;;;;;16.52;3.25;;;8.20;99.90;;;;;;5074726;28;20514;-70
2021/12/18 09:19:03;;;;;;;17.63;3.47;;;8.50;99.90;;;;;;5074421;28;20048;-70
2021/12/18 09:21:29;;;;;;;10.15;3.33;;;8.30;99.90;;;;;;5074371;28;20369;-70
2021/12/18 09:23:55;;;;;;;14.50;3.42;;;8.60;99.90;;;;;;5073433;28;20082;-70
2021/12/18 09:26:20;;;;;;;12.40;3.28;;;8.40;99.90;;;;;;5074512;28;20102;-70
2021/12/18 09:28:46;;;;;;;13.77;3.03;;;8.60;99.90;;;;;;5070452;28;20070;-70
2021/12/18 09:31:12;;;;;;;13.25;3.10;;;8.40;99.90;;;;;;5071832;28;20040;-70
2021/12/18 09:33:37;;;;;;;11.93;3.30;;;8.70;99.90;;;;;;5072335;28;20058;-70
2021/12/18 09:36:03;;;;;;;14.73;3.30;;;8.50;99.90;;;;;;5072664;28;20044;-71
2021/12/18 09:38:29;;;;;;;9.25;4.15;;;8.40;99.90;;;;;;5073282;28;20469;-75
2021/12/18 09:40:58;;;;;;;7.85;3.33;;;8.50;99.90;;;;;;5071758;28;20070;-76
2021/12/18 09:43:24;;;;;;;9.90;2.83;;;8.50;99.90;;;;;;5069942;28;20048;-70
2021/12/18 09:45:50;;;;;;;9.90;3.28;;;8.70;99.90;;;;;;5072341;28;20455;-70
2021/12/18 09:48:16;;;;;;;17.38;3.53;;;8.50;99.90;;;;;;5071396;28;20055;-70
2021/12/18 09:50:43;;;;;;;10.80;2.83;;;8.60;99.90;;;;;;5071398;28;20474;-69
2021/12/18 09:53:09;;;;;;;17.58;3.50;;;8.60;99.90;;;;;;5071761;28;20052;-69
2021/12/18 09:55:35;;;;;;;9.80;3.22;;;8.70;99.90;;;;;;5070395;28;20052;-69
2021/12/18 09:58:01;;;;;;;15.98;3.85;;;8.30;99.90;;;;;;5071337;28;20044;-69
2021/12/18 10:00:27;;;;;;;12.50;3.50;;;8.60;99.90;;;;;;5072964;28;20076;-69
2021/12/18 10:02:54;;;;;;;7.15;2.88;;;8.90;99.90;;;;;;5072507;28;20041;-68
2021/12/18 10:05:21;;;;;;;13.82;3.78;;;8.50;99.90;;;;;;5071368;28;20465;-69
2021/12/18 10:08:05;;;;;;;9.82;3.10;;;8.60;99.90;;;;;;5072327;28;20048;-69
2021/12/18 10:10:31;;;;;;;11.57;2.85;;;8.70;99.90;;;;;;5051594;28;20053;-70
2021/12/18 10:13:09;;;;;;;7.78;2.90;;;8.60;99.90;;;;;;5052996;28;20065;-68
2021/12/18 10:15:36;;;;;;;15.50;3.95;;;8.80;99.90;;;;;;5062272;28;20382;-69
2021/12/18 10:18:07;;;;;;;10.32;2.13;;;8.50;99.90;;;;;;5073074;28;20433;-66
2021/12/18 10:20:33;;;;;;;6.40;2.45;;;8.70;99.90;;;;;;5054621;28;20392;-68
2021/12/18 10:23:02;;;;;;;9.65;2.10;;;8.70;99.90;;;;;;5073149;28;20044;-69
2021/12/18 10:25:40;;;;;;;10.68;2.50;;;8.80;99.90;;;;;;5073102;28;20087;-67
2021/12/18 10:28:17;;;;;;;10.40;2.60;;;8.70;99.90;;;;;;5073150;28;20041;-69
2021/12/18 10:30:49;;;;;;;9.10;2.10;;;9.10;99.90;;;;;;4986058;28;20096;-67
2021/12/18 10:33:15;;;;;;;11.25;2.42;;;8.60;99.90;;;;;;5012023;28;20389;-69
2021/12/18 10:35:50;;;;;;;7.72;2.00;;;8.90;99.90;;;;;;5013408;28;20077;-67
2021/12/18 10:38:36;;;;;;;7.50;2.40;;;8.80;99.90;;;;;;5013623;28;20061;-67
2021/12/18 10:41:02;;;;;;;10.02;2.03;;;9.30;99.90;;;;;;5013227;28;20057;-68
2021/12/18 10:44:10;;;;;;;13.88;2.33;;;8.90;99.90;;;;;;5013188;28;20123;-67
2021/12/18 10:46:43;;;;;;;11.88;2.50;;;8.80;99.90;;;;;;5012860;28;20053;-69
2021/12/18 10:49:14;;;;;;;11.05;2.40;;;8.90;99.90;;;;;;5013093;28;20088;-69
2021/12/18 10:51:42;;;;;;;7.55;2.40;;;8.70;99.90;;;;;;5013063;28;20042;-67
2021/12/18 10:54:24;;;;;;;11.02;2.40;;;8.90;99.90;;;;;;4995679;28;20053;-69
2021/12/18 10:56:52;;;;;;;12.25;2.50;;;8.70;99.90;;;;;;5012828;28;20601;-68
2021/12/18 10:59:34;;;;;;;8.07;2.30;;;8.90;99.90;;;;;;5012675;28;20052;-70
2021/12/18 11:02:05;;;;;;;11.00;2.40;;;8.80;99.90;;;;;;5012594;28;20446;-68
2021/12/18 11:04:34;;;;;;;7.40;2.17;;;9.30;99.90;;;;;;5012877;28;20053;-68
2021/12/18 11:07:19;;;;;;;12.50;2.85;;;9.30;99.90;;;;;;5012839;28;20058;-71
2021/12/18 11:09:59;;;;;;;8.82;2.40;;;9.40;99.90;;;;;;5012834;28;20049;-69
2021/12/18 11:15:11;;;;;;;13.40;3.58;;;9.50;99.90;;;;;;5012228;28;20073;-69
2021/12/18 11:17:37;;;;;;;10.90;2.83;;;9.30;99.90;;;;;;5028012;28;20093;-68
2021/12/18 11:20:03;;;;;;;9.60;2.97;;;8.80;99.90;;;;;;5012822;28;20050;-67
2021/12/18 11:22:29;;;;;;;;;;;9.20;99.90;;;;;;5013211;28;20078;-66
2021/12/18 11:25:01;;;;;;;21.75;3.63;;;9.40;99.90;;;;;;5012776;28;19929;-71
2021/12/18 11:27:29;;;;;;;14.32;2.88;;;8.30;99.90;;;;;;5012463;28;20403;-67
2021/12/18 11:30:06;;;;;;;11.15;2.63;;;9.40;99.90;;;;;;5011377;28;20050;-67
2021/12/18 11:32:35;;;;;;;15.07;2.60;;;9.30;99.90;;;;;;5012856;28;20129;-66
2021/12/18 11:35:05;;;;;;;12.68;2.63;;;9.10;99.90;;;;;;5008041;28;20065;-70
2021/12/18 11:37:43;;;;;;;14.85;2.70;;;9.10;99.90;;;;;;5004897;28;20084;-70
2021/12/18 11:40:12;;;;;;;14.23;3.03;;;9.20;99.90;;;;;;5012537;28;20057;-69
2021/12/18 11:42:38;;;;;;;8.00;2.17;;;9.20;99.90;;;;;;5012351;28;20437;-68
2021/12/18 11:45:06;;;;;;;8.63;2.72;;;10.20;99.90;;;;;;5011396;28;20129;-73
2021/12/18 11:47:35;;;;;;;14.75;2.90;;;9.20;99.90;;;;;;5011595;28;20042;-70
2021/12/18 11:50:23;;;;;;;11.18;2.85;;;10.10;99.90;;;;;;5011528;28;20109;-71
2021/12/18 11:52:59;;;;;;;12.50;2.47;;;10.10;99.90;;;;;;5012583;28;20090;-69
2021/12/18 11:55:31;;;;;;;11.38;2.25;;;9.50;99.90;;;;;;5012460;28;20061;-69
2021/12/18 11:58:09;;;;;;;8.50;2.40;;;9.60;99.90;;;;;;5012211;28;20053;-69
2021/12/18 12:00:35;;;;;;;14.43;2.72;;;9.20;99.90;;;;;;5008909;28;20137;-70
2021/12/18 12:03:02;;;;;;;14.05;2.50;;;9.40;99.90;;;;;;5012584;28;20238;-69
2021/12/18 12:05:48;;;;;;;19.40;2.92;;;9.30;99.90;;;;;;5012533;28;20053;-68
2021/12/18 12:08:28;;;;;;;11.05;2.50;;;9.30;99.90;;;;;;5012282;28;20483;-69
2021/12/18 12:11:32;;;;;;;10.90;2.40;;;9.30;99.90;;;;;;5012470;28;20112;-68
2021/12/18 12:14:13;;;;;;;12.55;2.50;;;9.40;99.90;;;;;;4951474;28;20567;-68
2021/12/18 12:17:00;;;;;;;21.33;4.38;;;9.30;99.90;;;;;;4954979;29;20129;-68
2021/12/18 12:19:35;;;;;;;11.85;3.03;;;10.70;99.90;;;;;;4998817;28;20061;-69
2021/12/18 12:22:05;;;;;;;7.65;2.50;;;10.10;99.90;;;;;;5015047;28;20112;-69
2021/12/18 12:24:52;;;;;;;15.82;3.42;;;9.30;99.90;;;;;;5015964;28;20108;-68
2021/12/18 12:27:35;;;;;;;14.27;2.80;;;9.30;99.90;;;;;;5015822;28;20439;-68
2021/12/18 12:30:08;;;;;;;14.30;2.72;;;9.30;99.90;;;;;;5015901;28;20080;-69
2021/12/18 12:32:35;;;;;;;11.07;2.83;;;9.10;99.90;;;;;;5015776;28;20124;-69
2021/12/18 12:35:19;;;;;;;13.70;2.63;;;10.00;99.90;;;;;;5014565;28;20115;-70
2021/12/18 12:37:46;;;;;;;14.70;2.85;;;9.30;99.90;;;;;;5015706;28;20054;-68
2021/12/18 12:40:20;;;;;;;14.88;3.13;;;9.00;99.90;;;;;;5015634;28;20054;-68
2021/12/18 12:43:22;;;;;;;22.98;3.30;;;9.20;99.90;;;;;;5015362;28;20099;-69
2021/12/18 12:45:51;;;;;;;13.43;3.60;;;9.40;99.90;;;;;;5012905;28;20473;-68
2021/12/18 12:48:18;;;;;;;15.10;4.60;;;11.00;99.90;;;;;;5015545;28;20077;-68
2021/12/18 12:50:57;;;;;;;15.82;2.88;;;10.30;99.90;;;;;;5015452;28;20069;-68
2021/12/18 12:53:52;;;;;;;10.60;2.67;;;9.20;99.90;;;;;;5015439;28;20046;-68
2021/12/18 12:56:21;;;;;;;14.95;2.90;;;9.10;99.90;;;;;;5015151;28;20056;-68
2021/12/18 12:59:07;;;;;;;11.52;2.60;;;9.50;99.90;;;;;;5015172;28;20137;-69
2021/12/18 13:01:37;;;;;;;13.13;2.90;;;9.30;99.90;;;;;;5014144;28;20046;-68
2021/12/18 13:04:03;;;;;;;17.30;2.88;;;8.90;99.90;;;;;;5014128;28;20108;-68
2021/12/18 13:06:29;;;;;;;10.23;2.35;;;8.90;99.90;;;;;;5007965;28;20046;-69
2021/12/18 13:08:55;;;;;;;11.60;2.47;;;8.70;99.90;;;;;;5006469;28;20042;-69
2021/12/18 13:11:24;;;;;;;9.93;2.50;;;9.00;99.90;;;;;;5001566;28;20050;-69
2021/12/18 13:13:52;;;;;;;13.20;3.30;;;9.50;99.90;;;;;;5008418;28;20062;-68
2021/12/18 13:16:21;;;;;;;11.10;2.95;;;9.10;99.90;;;;;;5009549;28;20045;-69
2021/12/18 13:18:56;;;;;;;16.70;2.70;;;8.70;99.90;;;;;;5004465;28;20062;-75
2021/12/18 13:21:25;;;;;;;16.77;2.50;;;9.20;99.90;;;;;;5004445;28;20038;-71
2021/12/18 13:23:51;;;;;;;17.33;2.67;;;9.00;99.90;;;;;;4979903;28;20077;-69
2021/12/18 13:26:34;;;;;;;14.50;2.85;;;9.10;99.90;;;;;;4993998;28;20062;-69
2021/12/18 13:29:02;;;;;;;13.38;2.60;;;8.80;99.90;;;;;;5007921;28;20109;-69
2021/12/18 13:31:34;;;;;;;11.07;3.33;;;9.60;99.90;;;;;;4997106;28;20046;-69
2021/12/18 13:34:06;;;;;;;13.13;2.90;;;9.00;99.90;;;;;;4979657;28;20396;-75
2021/12/18 13:36:45;;;;;;;16.02;2.80;;;9.90;99.90;;;;;;5000971;28;20061;-69
2021/12/18 13:39:15;;;;;;;13.63;3.13;;;8.70;99.90;;;;;;4999099;28;20515;-69
2021/12/18 13:42:04;;;;;;;10.70;2.85;;;9.00;99.90;;;;;;4996348;28;20086;-70
2021/12/18 13:44:52;;;;;;;12.75;2.58;;;9.00;99.90;;;;;;5002192;28;20506;-68
2021/12/18 13:47:37;;;;;;;13.25;2.65;;;8.90;99.90;;;;;;4997766;28;20038;-69
2021/12/18 13:50:16;;;;;;;9.85;2.10;;;8.70;99.90;;;;;;5000484;28;20483;-72
2021/12/18 13:52:47;;;;;;;12.60;2.42;;;9.00;99.90;;;;;;5005347;28;20487;-69
2021/12/18 13:55:27;;;;;;;10.30;2.47;;;8.90;99.90;;;;;;5004978;28;20050;-69
2021/12/18 13:58:19;;;;;;;7.30;2.10;;;9.10;99.90;;;;;;4991828;28;20124;-69